Home > Products > Valid Products > TAF

000
FTUS45 KPUB 260527
TAFCOS
TAF
KCOS 260527Z 2606/2706 32008KT P6SM FEW100 SCT150 SCT200
     FM261700 10010KT P6SM SCT080 BKN130
     FM262000 07012KT P6SM VCTS SCT060CB BKN130
     FM270300 VRB06KT P6SM SCT060 BKN130=



000
FTUS45 KPUB 260527
TAFALS
TAF
KALS 260527Z 2606/2706 VRB05KT P6SM FEW120
     FM261900 35008KT P6SM SCT080 BKN130=



000
FTUS45 KPUB 260527
TAFPUB
TAF
KPUB 260527Z 2606/2706 VRB05KT P6SM FEW120 SCT160 SCT200
     FM261700 05009KT P6SM SCT090 BKN140
     FM262300 03012KT P6SM VCTS SCT080CB BKN140
     FM270300 VRB06KT P6SM SCT080 BKN150=



000
FTUS45 KPUB 260527
TAFPUB
TAF
KPUB 260527Z 2606/2706 VRB05KT P6SM FEW120 SCT160 SCT200
     FM261700 05009KT P6SM SCT090 BKN140
     FM262300 03012KT P6SM VCTS SCT080CB BKN140
     FM270300 VRB06KT P6SM SCT080 BKN150=



000
FTUS45 KPUB 260527
TAFALS
TAF
KALS 260527Z 2606/2706 VRB05KT P6SM FEW120
     FM261900 35008KT P6SM SCT080 BKN130=



000
FTUS45 KPUB 260527
TAFCOS
TAF
KCOS 260527Z 2606/2706 32008KT P6SM FEW100 SCT150 SCT200
     FM261700 10010KT P6SM SCT080 BKN130
     FM262000 07012KT P6SM VCTS SCT060CB BKN130
     FM270300 VRB06KT P6SM SCT060 BKN130=



000
FTUS45 KPUB 252344
TAFCOS
TAF
KCOS 252344Z 2600/2624 31010G20KT P6SM VCTS FEW050 SCT070CB BKN100
     FM260200 01008KT P6SM SCT080 BKN120
     FM260500 35008KT P6SM FEW100 SCT150
     FM261800 35009KT P6SM SCT080 BKN130
     FM262100 09010KT P6SM VCTS SCT060CB BKN130=



000
FTUS45 KPUB 252344
TAFALS
TAF
KALS 252344Z 2600/2624 36011KT P6SM VCTS SCT060CB BKN120
     FM260100 32007KT P6SM SCT070 SCT120
     FM260400 VRB04KT P6SM FEW120
     FM261800 33009KT P6SM SCT080 BKN130=



000
FTUS45 KPUB 252344
TAFPUB
TAF
KPUB 252344Z 2600/2624 02010KT P6SM VCTS FEW050 SCT080CB BKN100
      TEMPO 2600/2602 VRB10G20KT 5SM TSRA BKN060CB
     FM260200 34008KT P6SM SCT080 BKN150
     FM260500 VRB04KT P6SM FEW120 SCT200
     FM261800 08009KT P6SM SCT090 BKN140=



000
FTUS45 KPUB 252344
TAFCOS
TAF
KCOS 252344Z 2600/2624 31010G20KT P6SM VCTS FEW050 SCT070CB BKN100
     FM260200 01008KT P6SM SCT080 BKN120
     FM260500 35008KT P6SM FEW100 SCT150
     FM261800 35009KT P6SM SCT080 BKN130
     FM262100 09010KT P6SM VCTS SCT060CB BKN130=



000
FTUS45 KPUB 252344
TAFPUB
TAF
KPUB 252344Z 2600/2624 02010KT P6SM VCTS FEW050 SCT080CB BKN100
      TEMPO 2600/2602 VRB10G20KT 5SM TSRA BKN060CB
     FM260200 34008KT P6SM SCT080 BKN150
     FM260500 VRB04KT P6SM FEW120 SCT200
     FM261800 08009KT P6SM SCT090 BKN140=



000
FTUS45 KPUB 252344
TAFALS
TAF
KALS 252344Z 2600/2624 36011KT P6SM VCTS SCT060CB BKN120
     FM260100 32007KT P6SM SCT070 SCT120
     FM260400 VRB04KT P6SM FEW120
     FM261800 33009KT P6SM SCT080 BKN130=



000
FTUS45 KPUB 252312 AAB
TAFPUB
TAF AMD
KPUB 252312Z 2523/2618 14008KT P6SM VCTS SCT080CB BKN120
      TEMPO 2523/2603 VRB25G45KT 2SM +TSRA BKN050CB
     FM260300 34008KT P6SM SCT080 BKN150
     FM260500 VRB04KT P6SM FEW120 SCT200=



000
FTUS45 KPUB 252312 AAB
TAFPUB
TAF AMD
KPUB 252312Z 2523/2618 14008KT P6SM VCTS SCT080CB BKN120
      TEMPO 2523/2603 VRB25G45KT 2SM +TSRA BKN050CB
     FM260300 34008KT P6SM SCT080 BKN150
     FM260500 VRB04KT P6SM FEW120 SCT200=



000
FTUS45 KPUB 252243 AAA
TAFPUB
TAF AMD
KPUB 252243Z 2523/2618 14008KT P6SM VCTS SCT080CB BKN120
      TEMPO 2523/2603 VRB25G45KT 5SM TSRA BKN050CB
     FM260300 34008KT P6SM SCT080 BKN150
     FM260500 VRB04KT P6SM FEW120 SCT200=



000
FTUS45 KPUB 252243 AAA
TAFPUB
TAF AMD
KPUB 252243Z 2523/2618 14008KT P6SM VCTS SCT080CB BKN120
      TEMPO 2523/2603 VRB25G45KT 5SM TSRA BKN050CB
     FM260300 34008KT P6SM SCT080 BKN150
     FM260500 VRB04KT P6SM FEW120 SCT200=



000
FTUS45 KPUB 251720
TAFPUB
TAF
KPUB 251720Z 2518/2618 VRB06KT P6SM SCT150
     FM252000 15012KT P6SM SCT100 BKN150
     FM252300 32010G20KT P6SM VCTS SCT080CB BKN120
     FM260200 34008KT P6SM SCT080 BKN150
     FM260500 VRB04KT P6SM FEW120 SCT200=



000
FTUS45 KPUB 251720
TAFALS
TAF
KALS 251720Z 2518/2618 VRB05KT P6SM SCT120
     FM252000 27012KT P6SM VCTS SCT060CB BKN120
     FM260100 32007KT P6SM SCT070 SCT120
     FM260400 VRB04KT P6SM FEW120=



000
FTUS45 KPUB 251720
TAFCOS
TAF
KCOS 251720Z 2518/2618 05010KT P6SM SCT080 SCT150
     FM251900 16010KT P6SM SCT080 BKN150
     FM252200 35010G20KT P6SM VCTS SCT070CB BKN100
     FM260200 01008KT P6SM SCT080 BKN120
     FM260500 35008KT P6SM FEW100 SCT150=



000
FTUS45 KPUB 251720
TAFALS
TAF
KALS 251720Z 2518/2618 VRB05KT P6SM SCT120
     FM252000 27012KT P6SM VCTS SCT060CB BKN120
     FM260100 32007KT P6SM SCT070 SCT120
     FM260400 VRB04KT P6SM FEW120=



000
FTUS45 KPUB 251720
TAFPUB
TAF
KPUB 251720Z 2518/2618 VRB06KT P6SM SCT150
     FM252000 15012KT P6SM SCT100 BKN150
     FM252300 32010G20KT P6SM VCTS SCT080CB BKN120
     FM260200 34008KT P6SM SCT080 BKN150
     FM260500 VRB04KT P6SM FEW120 SCT200=



000
FTUS45 KPUB 251720
TAFCOS
TAF
KCOS 251720Z 2518/2618 05010KT P6SM SCT080 SCT150
     FM251900 16010KT P6SM SCT080 BKN150
     FM252200 35010G20KT P6SM VCTS SCT070CB BKN100
     FM260200 01008KT P6SM SCT080 BKN120
     FM260500 35008KT P6SM FEW100 SCT150=



000
FTUS45 KPUB 251123
TAFCOS
TAF
KCOS 251123Z 2512/2612 35005KT P6SM FEW130 BKN150
     FM251900 11010KT P6SM VCTS SCT060CB BKN130
     FM252200 35010G20KT P6SM VCTS SCT060CB BKN110
     FM260400 36007KT P6SM SCT070 BKN150=



000
FTUS45 KPUB 251123
TAFALS
TAF
KALS 251123Z 2512/2612 VRB05KT P6SM FEW120 BKN150
     FM251800 25010KT P6SM VCTS SCT050CB BKN100
     FM260300 31007KT P6SM SCT070 SCT100=



000
FTUS45 KPUB 251123
TAFPUB
TAF
KPUB 251123Z 2512/2612 28010KT P6SM SCT150
     FM252000 12012KT P6SM VCTS SCT070CB BKN140
     FM252200 34010G20KT P6SM VCTS SCT070CB BKN120
     FM260400 VRB05KT P6SM SCT080 BKN150=



000
FTUS45 KPUB 251123
TAFALS
TAF
KALS 251123Z 2512/2612 VRB05KT P6SM FEW120 BKN150
     FM251800 25010KT P6SM VCTS SCT050CB BKN100
     FM260300 31007KT P6SM SCT070 SCT100=



000
FTUS45 KPUB 251123
TAFPUB
TAF
KPUB 251123Z 2512/2612 28010KT P6SM SCT150
     FM252000 12012KT P6SM VCTS SCT070CB BKN140
     FM252200 34010G20KT P6SM VCTS SCT070CB BKN120
     FM260400 VRB05KT P6SM SCT080 BKN150=



000
FTUS45 KPUB 251123
TAFCOS
TAF
KCOS 251123Z 2512/2612 35005KT P6SM FEW130 BKN150
     FM251900 11010KT P6SM VCTS SCT060CB BKN130
     FM252200 35010G20KT P6SM VCTS SCT060CB BKN110
     FM260400 36007KT P6SM SCT070 BKN150=



000
FTUS45 KPUB 250527
TAFCOS
TAF
KCOS 250527Z 2506/2606 36008KT P6SM SCT120 BKN150
     FM251900 19011KT P6SM VCTS SCT070CB BKN130
     FM260400 VRB06KT P6SM SCT070 BKN130=



000
FTUS45 KPUB 250527
TAFALS
TAF
KALS 250527Z 2506/2606 VRB06KT P6SM FEW080 BKN130
     FM251000 28009KT P6SM VCTS SCT070CB BKN130
     FM260300 VRB06KT P6SM SCT070 SCT100=



000
FTUS45 KPUB 250527
TAFPUB
TAF
KPUB 250527Z 2506/2606 30008KT P6SM FEW120 SCT150
     FM252000 12012KT P6SM VCTS SCT090CB BKN140
     FM260300 VRB06KT P6SM SCT080 BKN140=



000
FTUS45 KPUB 250527
TAFPUB
TAF
KPUB 250527Z 2506/2606 30008KT P6SM FEW120 SCT150
     FM252000 12012KT P6SM VCTS SCT090CB BKN140
     FM260300 VRB06KT P6SM SCT080 BKN140=



000
FTUS45 KPUB 250527
TAFCOS
TAF
KCOS 250527Z 2506/2606 36008KT P6SM SCT120 BKN150
     FM251900 19011KT P6SM VCTS SCT070CB BKN130
     FM260400 VRB06KT P6SM SCT070 BKN130=



000
FTUS45 KPUB 250527
TAFALS
TAF
KALS 250527Z 2506/2606 VRB06KT P6SM FEW080 BKN130
     FM251000 28009KT P6SM VCTS SCT070CB BKN130
     FM260300 VRB06KT P6SM SCT070 SCT100=



000
FTUS45 KPUB 250232 AAB
TAFALS
TAF AMD
KALS 250232Z 2503/2524 33010G20KT P6SM FEW080 BKN090
     FM252100 27009KT P6SM VCTS SCT070CB BKN130=



000
FTUS45 KPUB 250232 AAB
TAFALS
TAF AMD
KALS 250232Z 2503/2524 33010G20KT P6SM FEW080 BKN090
     FM252100 27009KT P6SM VCTS SCT070CB BKN130=



000
FTUS45 KPUB 250140 AAB
TAFPUB
TAF AMD
KPUB 250140Z 2502/2524 15009KT P6SM SCT100 BKN120
      TEMPO 2502/2505 VRB22G32KT -TSRA BKN090CB
     FM250500 30008KT P6SM SCT100 BKN150
     FM250600 VRB06KT P6SM SCT150
     FM252000 11012KT P6SM FEW100 SCT150=



000
FTUS45 KPUB 250140 AAB
TAFPUB
TAF AMD
KPUB 250140Z 2502/2524 15009KT P6SM SCT100 BKN120
      TEMPO 2502/2505 VRB22G32KT -TSRA BKN090CB
     FM250500 30008KT P6SM SCT100 BKN150
     FM250600 VRB06KT P6SM SCT150
     FM252000 11012KT P6SM FEW100 SCT150=



000
FTUS45 KPUB 250138 AAA
TAFCOS
TAF AMD
KCOS 250138Z 2502/2524 34010KT P6SM VCTS SCT080CB BKN100
      TEMPO 2502/2504 VRB20G35KT -TSRA BKN050CB
     FM250400 35008KT P6SM SCT120 SCT150
     FM252000 16012KT P6SM VCTS SCT080CB BKN130=



000
FTUS45 KPUB 250138 AAA
TAFCOS
TAF AMD
KCOS 250138Z 2502/2524 34010KT P6SM VCTS SCT080CB BKN100
      TEMPO 2502/2504 VRB20G35KT -TSRA BKN050CB
     FM250400 35008KT P6SM SCT120 SCT150
     FM252000 16012KT P6SM VCTS SCT080CB BKN130=



000
FTUS45 KPUB 250000 AAA
TAFALS
TAF AMD
KALS 250000Z 2500/2524 24010G20KT P6SM SCT080 BKN100
     FM250200 VRB05KT P6SM FEW080 SCT150
     FM252100 27009KT P6SM VCTS SCT070CB BKN130=



000
FTUS45 KPUB 250000 AAA
TAFALS
TAF AMD
KALS 250000Z 2500/2524 24010G20KT P6SM SCT080 BKN100
     FM250200 VRB05KT P6SM FEW080 SCT150
     FM252100 27009KT P6SM VCTS SCT070CB BKN130=



000
FTUS45 KPUB 242344
TAFALS
TAF
KALS 242344Z 2500/2524 20010KT P6SM SCT080 BKN100
     FM250200 VRB05KT P6SM FEW080 SCT150
     FM252100 27009KT P6SM VCTS SCT070CB BKN130=



000
FTUS45 KPUB 242344
TAFCOS
TAF
KCOS 242344Z 2500/2524 34010KT P6SM VCTS SCT080CB BKN100
      TEMPO 2500/2504 VRB15G25KT -TSRA BKN050CB
     FM250400 35008KT P6SM SCT120 SCT150
     FM252000 16012KT P6SM VCTS SCT080CB BKN130=



000
FTUS45 KPUB 242344
TAFPUB
TAF
KPUB 242344Z 2500/2524 15009KT P6SM SCT100 BKN120
     FM250300 30008KT P6SM SCT100 BKN150
     FM250500 VRB06KT P6SM SCT150
     FM252000 11012KT P6SM FEW100 SCT150=



000
FTUS45 KPUB 242344
TAFALS
TAF
KALS 242344Z 2500/2524 20010KT P6SM SCT080 BKN100
     FM250200 VRB05KT P6SM FEW080 SCT150
     FM252100 27009KT P6SM VCTS SCT070CB BKN130=



000
FTUS45 KPUB 242344
TAFCOS
TAF
KCOS 242344Z 2500/2524 34010KT P6SM VCTS SCT080CB BKN100
      TEMPO 2500/2504 VRB15G25KT -TSRA BKN050CB
     FM250400 35008KT P6SM SCT120 SCT150
     FM252000 16012KT P6SM VCTS SCT080CB BKN130=



000
FTUS45 KPUB 242344
TAFPUB
TAF
KPUB 242344Z 2500/2524 15009KT P6SM SCT100 BKN120
     FM250300 30008KT P6SM SCT100 BKN150
     FM250500 VRB06KT P6SM SCT150
     FM252000 11012KT P6SM FEW100 SCT150=



000
FTUS45 KPUB 242325
TAFALS
TAF
KALS 242325Z 2500/2524 21006KT P6SM SCT080 BKN100
     FM250200 VRB05KT P6SM FEW080 SCT150
     FM252100 25008KT P6SM VCTS SCT080CB BKN150=



000
FTUS45 KPUB 242325
TAFCOS
TAF
KCOS 242325Z 2500/2524 34010KT P6SM VCTS SCT080CB BKN100
      TEMPO 2500/2502 VRB15G25KT -TSRA BKN050CB
     FM250300 35008KT P6SM SCT120 SCT150
     FM252000 16012KT P6SM VCTS SCT080CB BKN150=



000
FTUS45 KPUB 242325
TAFPUB
TAF
KPUB 242325Z 2500/2524 12009KT P6SM SCT100 BKN120
     FM250300 30008KT P6SM SCT100 BKN150
     FM250500 VRB06KT P6SM SCT150
     FM252000 11012KT P6SM SCT150=



000
FTUS45 KPUB 242325
TAFCOS
TAF
KCOS 242325Z 2500/2524 34010KT P6SM VCTS SCT080CB BKN100
      TEMPO 2500/2502 VRB15G25KT -TSRA BKN050CB
     FM250300 35008KT P6SM SCT120 SCT150
     FM252000 16012KT P6SM VCTS SCT080CB BKN150=



000
FTUS45 KPUB 242325
TAFALS
TAF
KALS 242325Z 2500/2524 21006KT P6SM SCT080 BKN100
     FM250200 VRB05KT P6SM FEW080 SCT150
     FM252100 25008KT P6SM VCTS SCT080CB BKN150=



000
FTUS45 KPUB 242325
TAFPUB
TAF
KPUB 242325Z 2500/2524 12009KT P6SM SCT100 BKN120
     FM250300 30008KT P6SM SCT100 BKN150
     FM250500 VRB06KT P6SM SCT150
     FM252000 11012KT P6SM SCT150=



000
FTUS45 KPUB 241720
TAFPUB
TAF
KPUB 241720Z 2418/2518 20010KT P6SM FEW150
     FM241900 22012KT P6SM SCT120 SCT150
     FM242300 26012G22KT P6SM VCTS SCT100CB BKN120
     FM250300 30008KT P6SM SCT100 BKN150
     FM250500 VRB06KT P6SM SCT150=



000
FTUS45 KPUB 241720
TAFPUB
TAF

FM250400
 VRB06KT P6SM SCT090 BKN150=



000
FTUS45 KPUB 241720
TAFALS
TAF
KALS 241720Z 2418/2518 VRB06KT P6SM SCT100
     FM242000 22012KT P6SM SCT100 BKN150
     FM242200 26012G22KT P6SM VCTS SCT080CB BKN100
     FM250200 VRB05KT P6SM FEW080 SCT150=



000
FTUS45 KPUB 241720
TAFALS
TAF
KALS 241720Z 2418/2518 VRB06KT P6SM SCT100
     FM242000 22012KT P6SM SCT100 BKN150
     FM242200 26012G22KT P6SM VCTS SCT080CB BKN100
     FM250200 VRB05KT P6SM FEW080 SCT150=



000
FTUS45 KPUB 241720
TAFCOS
TAF
KCOS 241720Z 2418/2518 VRB05KT P6SM FEW080 SCT200
     FM241900 19010KT P6SM SCT080 SCT100 BKN150
     FM242300 34012G22KT P6SM VCTS SCT080CB BKN100
     FM250300 35008KT P6SM SCT120 SCT150=



000
FTUS45 KPUB 241720
TAFPUB
TAF

FM250400
 VRB06KT P6SM SCT090 BKN150=



000
FTUS45 KPUB 241720
TAFCOS
TAF
KCOS 241720Z 2418/2518 VRB05KT P6SM FEW080 SCT200
     FM241900 19010KT P6SM SCT080 SCT100 BKN150
     FM242300 34012G22KT P6SM VCTS SCT080CB BKN100
     FM250300 35008KT P6SM SCT120 SCT150=



000
FTUS45 KPUB 241720
TAFPUB
TAF
KPUB 241720Z 2418/2518 20010KT P6SM FEW150
     FM241900 22012KT P6SM SCT120 SCT150
     FM242300 26012G22KT P6SM VCTS SCT100CB BKN120
     FM250300 30008KT P6SM SCT100 BKN150
     FM250500 VRB06KT P6SM SCT150=



000
FTUS45 KPUB 241120
TAFALS
TAF
KALS 241120Z 2412/2512 VRB05KT P6SM FEW100
     FM241700 23009G19KT P6SM VCTS FEW060CB SCT100 BKN130
     FM250300 VRB05KT P6SM FEW060 SCT100 BKN130=



000
FTUS45 KPUB 241120
TAFPUB
TAF
KPUB 241120Z 2412/2512 VRB05KT P6SM FEW150
     FM241900 23010G20KT P6SM VCTS SCT090CB SCT110 BKN150
     FM250100 29012G22KT P6SM VCTS SCT090CB BKN120
     FM250400 VRB06KT P6SM SCT090 BKN150=



000
FTUS45 KPUB 241120
TAFCOS
TAF
KCOS 241120Z 2412/2512 VRB05KT P6SM FEW150
     FM241900 19010G20KT P6SM VCTS SCT080CB SCT130 BKN150
     FM242300 33012G22KT P6SM VCTS SCT080CB BKN120
     FM250400 35008KT P6SM SCT120 BKN150=



000
FTUS45 KPUB 241120
TAFCOS
TAF
KCOS 241120Z 2412/2512 VRB05KT P6SM FEW150
     FM241900 19010G20KT P6SM VCTS SCT080CB SCT130 BKN150
     FM242300 33012G22KT P6SM VCTS SCT080CB BKN120
     FM250400 35008KT P6SM SCT120 BKN150=



000
FTUS45 KPUB 241120
TAFPUB
TAF
KPUB 241120Z 2412/2512 VRB05KT P6SM FEW150
     FM241900 23010G20KT P6SM VCTS SCT090CB SCT110 BKN150
     FM250100 29012G22KT P6SM VCTS SCT090CB BKN120
     FM250400 VRB06KT P6SM SCT090 BKN150=



000
FTUS45 KPUB 241120
TAFALS
TAF
KALS 241120Z 2412/2512 VRB05KT P6SM FEW100
     FM241700 23009G19KT P6SM VCTS FEW060CB SCT100 BKN130
     FM250300 VRB05KT P6SM FEW060 SCT100 BKN130=



000
FTUS45 KPUB 240532
TAFALS
TAF
KALS 240532Z 2406/2506 VRB06KT P6SM SCT100 BKN130
     FM241700 20009G19KT P6SM VCTS FEW060CB SCT100 BKN130
     FM250300 VRB06KT P6SM FEW060 SCT100 BKN130=



000
FTUS45 KPUB 240532
TAFCOS
TAF
KCOS 240532Z 2406/2506 35007KT P6SM SCT100 SCT200
     FM240800 03007KT P6SM SCT100 SCT150
     FM241900 35010G20KT P6SM VCTS SCT080CB SCT130 BKN150
     FM250400 35008KT P6SM SCT080 BKN150=



000
FTUS45 KPUB 240532
TAFPUB
TAF
KPUB 240532Z 2406/2506 VRB06KT P6SM FEW120 SCT200
     FM241900 23010G20KT P6SM VCTS SCT090CB SCT110 BKN160
     FM250400 VRB06KT P6SM SCT090 BKN150=



000
FTUS45 KPUB 240532
TAFPUB
TAF
KPUB 240532Z 2406/2506 VRB06KT P6SM FEW120 SCT200
     FM241900 23010G20KT P6SM VCTS SCT090CB SCT110 BKN160
     FM250400 VRB06KT P6SM SCT090 BKN150=



000
FTUS45 KPUB 240532
TAFALS
TAF
KALS 240532Z 2406/2506 VRB06KT P6SM SCT100 BKN130
     FM241700 20009G19KT P6SM VCTS FEW060CB SCT100 BKN130
     FM250300 VRB06KT P6SM FEW060 SCT100 BKN130=



000
FTUS45 KPUB 240532
TAFCOS
TAF
KCOS 240532Z 2406/2506 35007KT P6SM SCT100 SCT200
     FM240800 03007KT P6SM SCT100 SCT150
     FM241900 35010G20KT P6SM VCTS SCT080CB SCT130 BKN150
     FM250400 35008KT P6SM SCT080 BKN150=



000
FTUS45 KPUB 232340
TAFCOS
TAF
KCOS 232340Z 2400/2424 15012G22KT P6SM VCTS FEW100 SCT120CB SCT200
     FM240300 09008KT P6SM SCT100 SCT200
     FM240800 03007KT P6SM SCT100 SCT200
     FM241900 35010G20KT P6SM VCTS SCT080CB SCT150=



000
FTUS45 KPUB 232340
TAFPUB
TAF
KPUB 232340Z 2400/2424 12012G22KT P6SM FEW100 SCT120 SCT200
     FM240300 VRB06KT P6SM FEW120 SCT200
     FM241900 25010G20KT P6SM SCT100 SCT200=



000
FTUS45 KPUB 232340
TAFPUB
TAF
KPUB 232340Z 2400/2424 12012G22KT P6SM FEW100 SCT120 SCT200
     FM240300 VRB06KT P6SM FEW120 SCT200
     FM241900 25010G20KT P6SM SCT100 SCT200=



000
FTUS45 KPUB 232340
TAFALS
TAF
KALS 232340Z 2400/2424 27006G16KT P6SM VCTS SCT100CB SCT150
     FM240400 VRB06KT P6SM SCT100 BKN130
     FM241500 20009G19KT P6SM FEW060 SCT100 BKN130=



000
FTUS45 KPUB 232340
TAFCOS
TAF
KCOS 232340Z 2400/2424 15012G22KT P6SM VCTS FEW100 SCT120CB SCT200
     FM240300 09008KT P6SM SCT100 SCT200
     FM240800 03007KT P6SM SCT100 SCT200
     FM241900 35010G20KT P6SM VCTS SCT080CB SCT150=



000
FTUS45 KPUB 232340
TAFALS
TAF
KALS 232340Z 2400/2424 27006G16KT P6SM VCTS SCT100CB SCT150
     FM240400 VRB06KT P6SM SCT100 BKN130
     FM241500 20009G19KT P6SM FEW060 SCT100 BKN130=



000
FTUS45 KPUB 232204 AAA
TAFCOS
TAF AMD
KCOS 232204Z 2322/2418 14012G22KT P6SM VCTS SCT120CB SCT200
     FM240300 09008KT P6SM SCT100 SCT250
     FM240800 03007KT P6SM SCT100 SCT250
     FM241700 17010KT P6SM SCT080 SCT200=



000
FTUS45 KPUB 232204 AAA
TAFCOS
TAF AMD
KCOS 232204Z 2322/2418 14012G22KT P6SM VCTS SCT120CB SCT200
     FM240300 09008KT P6SM SCT100 SCT250
     FM240800 03007KT P6SM SCT100 SCT250
     FM241700 17010KT P6SM SCT080 SCT200=



000
FTUS45 KPUB 232020 AAA
TAFPUB
TAF AMD
KPUB 232020Z 2320/2418 11012G22KT P6SM SCT120 SCT250
     FM240300 10005KT P6SM FEW120 SCT250
     FM241600 25010KT P6SM SCT100 SCT200=



000
FTUS45 KPUB 232020 AAA
TAFPUB
TAF AMD
KPUB 232020Z 2320/2418 11012G22KT P6SM SCT120 SCT250
     FM240300 10005KT P6SM FEW120 SCT250
     FM241600 25010KT P6SM SCT100 SCT200=



000
FTUS45 KPUB 231734
TAFALS
TAF
KALS 231734Z 2318/2418 VRB05KT P6SM SCT120
     FM232000 16008KT P6SM SCT100 SCT150
     FM232200 18010G20KT P6SM VCTS SCT100CB SCT150
     FM240400 VRB05KT P6SM SCT100 BKN150=



000
FTUS45 KPUB 231734
TAFCOS
TAF
KCOS 231734Z 2318/2418 13013KT P6SM FEW080 SCT200
     FM232000 18012G22KT P6SM VCTS SCT100CB SCT200
     FM240400 09005KT P6SM SCT100 SCT250
     FM240800 03007KT P6SM SCT100 SCT250
     FM241700 17010KT P6SM SCT080 SCT200=



000
FTUS45 KPUB 231734
TAFALS
TAF
KALS 231734Z 2318/2418 VRB05KT P6SM SCT120
     FM232000 16008KT P6SM SCT100 SCT150
     FM232200 18010G20KT P6SM VCTS SCT100CB SCT150
     FM240400 VRB05KT P6SM SCT100 BKN150=



000
FTUS45 KPUB 231734
TAFCOS
TAF
KCOS 231734Z 2318/2418 13013KT P6SM FEW080 SCT200
     FM232000 18012G22KT P6SM VCTS SCT100CB SCT200
     FM240400 09005KT P6SM SCT100 SCT250
     FM240800 03007KT P6SM SCT100 SCT250
     FM241700 17010KT P6SM SCT080 SCT200=



000
FTUS45 KPUB 231734
TAFPUB
TAF
KPUB 231734Z 2318/2418 13008KT P6SM FEW100 SCT250
     FM232100 14012G22KT P6SM SCT120 SCT250
     FM240300 10005KT P6SM FEW120 SCT250
     FM241600 25010KT P6SM SCT100 SCT200=



000
FTUS45 KPUB 231734
TAFPUB
TAF
KPUB 231734Z 2318/2418 13008KT P6SM FEW100 SCT250
     FM232100 14012G22KT P6SM SCT120 SCT250
     FM240300 10005KT P6SM FEW120 SCT250
     FM241600 25010KT P6SM SCT100 SCT200=



000
FTUS45 KPUB 231120
TAFALS
TAF
KALS 231120Z 2312/2412 VRB05KT P6SM SCT120
     FM232000 16008KT P6SM SCT100 SCT150
     FM232200 18010G20KT P6SM VCTS SCT100CB SCT150
     FM240400 VRB05KT P6SM SCT100 BKN150=



000
FTUS45 KPUB 231120
TAFPUB
TAF
KPUB 231120Z 2312/2412 VRB05KT P6SM SKC
     FM231800 13008KT P6SM FEW120 SCT250
     FM232100 16012G22KT P6SM SCT120 SCT250
     FM240400 VRB05KT P6SM FEW120 SCT250=



000
FTUS45 KPUB 231120
TAFCOS
TAF
KCOS 231120Z 2312/2412 36006KT P6SM SKC
     FM231700 16010KT P6SM FEW100 SCT200
     FM232000 19012G22KT P6SM VCTS SCT100CB SCT200
     FM240400 VRB05KT P6SM SCT100 SCT250=



000
FTUS45 KPUB 231120
TAFALS
TAF
KALS 231120Z 2312/2412 VRB05KT P6SM SCT120
     FM232000 16008KT P6SM SCT100 SCT150
     FM232200 18010G20KT P6SM VCTS SCT100CB SCT150
     FM240400 VRB05KT P6SM SCT100 BKN150=



000
FTUS45 KPUB 231120
TAFPUB
TAF
KPUB 231120Z 2312/2412 VRB05KT P6SM SKC
     FM231800 13008KT P6SM FEW120 SCT250
     FM232100 16012G22KT P6SM SCT120 SCT250
     FM240400 VRB05KT P6SM FEW120 SCT250=



000
FTUS45 KPUB 231120
TAFCOS
TAF
KCOS 231120Z 2312/2412 36006KT P6SM SKC
     FM231700 16010KT P6SM FEW100 SCT200
     FM232000 19012G22KT P6SM VCTS SCT100CB SCT200
     FM240400 VRB05KT P6SM SCT100 SCT250=



    US Dept of Commerce
    National Oceanic and Atmospheric Administration
    National Weather Service
    1325 East West Highway
    Silver Spring, MD 20910
    Page Author: NWS Internet Services Team
Disclaimer
Information Quality
Credits
Glossary
Privacy Policy
Freedom of Information Act (FOIA)
About Us
Career Opportunities